createdAt,value
2019-03-15T00:01:45.080Z,7.30
2019-03-15T00:04:14.043Z,7.20
2019-03-15T00:06:42.872Z,7.20
2019-03-15T00:09:11.913Z,7.10
2019-03-15T00:11:40.724Z,7.20
2019-03-15T00:14:09.683Z,7.20
2019-03-15T00:16:38.755Z,7.10
2019-03-15T00:19:07.547Z,7.20
2019-03-15T00:21:36.380Z,7.10
2019-03-15T00:24:05.327Z,7.10
2019-03-15T00:26:34.372Z,7.10
2019-03-15T00:29:03.169Z,7.20
2019-03-15T00:31:31.981Z,7.20
2019-03-15T00:34:00.761Z,7.20
2019-03-15T00:36:29.566Z,7.10
2019-03-15T00:39:17.562Z,7.20
2019-03-15T00:41:46.584Z,7.20
2019-03-15T00:44:15.432Z,7.20
2019-03-15T00:46:44.279Z,7.20
2019-03-15T00:49:13.144Z,7.20
2019-03-15T00:51:41.955Z,7.20
2019-03-15T00:54:10.847Z,7.20
2019-03-15T00:56:39.679Z,7.10
2019-03-15T00:59:08.628Z,7.20
2019-03-15T01:01:56.629Z,7.20
2019-03-15T01:04:25.508Z,7.20
2019-03-15T01:06:54.433Z,7.30
2019-03-15T01:09:23.265Z,7.30
2019-03-15T01:11:52.088Z,7.20
2019-03-15T01:14:21.018Z,7.30
2019-03-15T01:16:49.974Z,7.30
2019-03-15T01:19:18.817Z,7.30
2019-03-15T01:21:47.618Z,7.30
2019-03-15T01:24:16.410Z,7.30
2019-03-15T01:26:45.249Z,7.30
2019-03-15T01:29:14.066Z,7.20
2019-03-15T01:31:43.026Z,7.20
2019-03-15T01:34:11.809Z,7.20
2019-03-15T01:36:40.621Z,7.20
2019-03-15T01:39:10.095Z,7.30
2019-03-15T01:41:39.116Z,7.30
2019-03-15T01:44:07.927Z,7.30
2019-03-15T01:46:36.772Z,7.30
2019-03-15T01:49:05.819Z,7.40
2019-03-15T01:51:34.708Z,7.30
2019-03-15T01:54:03.593Z,7.40
2019-03-15T01:56:32.383Z,7.50
2019-03-15T01:59:01.238Z,7.40
2019-03-15T02:01:30.736Z,7.50
2019-03-15T02:03:59.843Z,7.50
2019-03-15T02:06:28.656Z,7.60
2019-03-15T02:08:57.463Z,7.70
2019-03-15T02:11:26.418Z,7.60
2019-03-15T02:13:55.277Z,7.70
2019-03-15T02:16:24.196Z,7.60
2019-03-15T02:18:53.213Z,7.70
2019-03-15T02:21:22.136Z,7.70
2019-03-15T02:23:50.984Z,7.80
2019-03-15T02:26:19.861Z,7.80
2019-03-15T02:28:48.691Z,7.80
2019-03-15T02:31:17.497Z,7.80
2019-03-15T02:33:46.318Z,7.90
2019-03-15T02:36:15.155Z,7.80
2019-03-15T02:38:44.174Z,7.80
2019-03-15T02:41:13.048Z,7.80
2019-03-15T02:43:41.871Z,7.70
2019-03-15T02:46:10.647Z,7.70
2019-03-15T02:48:40.653Z,7.80
2019-03-15T02:51:09.834Z,7.80
2019-03-15T02:53:38.622Z,7.80
2019-03-15T02:56:07.618Z,7.90
2019-03-15T02:58:36.493Z,8.00
2019-03-15T03:01:05.350Z,7.90
2019-03-15T03:03:34.254Z,8.00
2019-03-15T03:06:03.058Z,8.00
2019-03-15T03:08:31.875Z,8.00
2019-03-15T03:11:00.994Z,8.00
2019-03-15T03:13:29.812Z,8.00
2019-03-15T03:15:58.648Z,8.10
2019-03-15T03:18:27.534Z,8.00
2019-03-15T03:20:56.559Z,8.00
2019-03-15T03:23:25.400Z,8.00
2019-03-15T03:25:54.422Z,8.10
2019-03-15T03:28:23.409Z,8.10
2019-03-15T03:30:52.289Z,8.10
2019-03-15T03:33:21.129Z,8.00
2019-03-15T03:35:49.973Z,7.90
2019-03-15T03:38:18.768Z,7.80
2019-03-15T03:40:47.665Z,7.70
2019-03-15T03:43:16.473Z,7.70
2019-03-15T03:45:45.486Z,7.70
2019-03-15T03:48:15.753Z,7.70
2019-03-15T03:50:44.852Z,7.80
2019-03-15T03:53:13.732Z,7.80
2019-03-15T03:55:42.712Z,7.90
2019-03-15T03:58:11.564Z,7.90
2019-03-15T04:00:40.377Z,8.00
2019-03-15T04:03:09.552Z,8.10
2019-03-15T04:05:38.501Z,8.20
2019-03-15T04:08:07.379Z,8.20
2019-03-15T04:10:55.393Z,8.20
2019-03-15T04:13:24.165Z,8.20
2019-03-15T04:15:53.029Z,8.10
2019-03-15T04:18:22.009Z,8.20
2019-03-15T04:20:50.922Z,8.10
2019-03-15T04:23:19.944Z,8.20
2019-03-15T04:25:48.741Z,8.10
2019-03-15T04:28:17.594Z,8.20
2019-03-15T04:30:46.391Z,8.20
2019-03-15T04:33:15.201Z,8.20
2019-03-15T04:35:44.025Z,8.30
2019-03-15T04:38:12.839Z,8.20
2019-03-15T04:40:41.664Z,8.30
2019-03-15T04:43:10.484Z,8.30
2019-03-15T04:45:39.337Z,8.20
2019-03-15T04:48:08.141Z,8.30
2019-03-15T04:50:37.221Z,8.20
2019-03-15T04:53:06.079Z,8.20
2019-03-15T04:55:34.994Z,8.20
2019-03-15T04:58:03.818Z,8.20
2019-03-15T05:00:32.731Z,8.20
2019-03-15T05:03:01.652Z,8.20
2019-03-15T05:05:30.553Z,8.20
2019-03-15T05:07:59.554Z,8.20
2019-03-15T05:10:28.365Z,8.20
2019-03-15T05:12:57.213Z,8.10
2019-03-15T05:15:26.104Z,8.10
2019-03-15T05:17:54.979Z,8.10
2019-03-15T05:20:23.821Z,8.10
2019-03-15T05:22:52.616Z,8.00
2019-03-15T05:25:21.696Z,8.00
2019-03-15T05:27:50.469Z,8.00
2019-03-15T05:30:19.346Z,8.00
2019-03-15T05:32:48.163Z,7.90
2019-03-15T05:35:17.291Z,7.90
2019-03-15T05:37:46.172Z,7.90
2019-03-15T05:40:15.152Z,7.90
2019-03-15T05:42:44.004Z,7.90
2019-03-15T05:45:12.966Z,7.80
2019-03-15T05:47:41.858Z,7.80
2019-03-15T05:50:11.192Z,7.80
2019-03-15T05:52:40.157Z,7.80
2019-03-15T05:55:10.326Z,7.80
2019-03-15T05:57:39.172Z,7.70
2019-03-15T06:00:11.196Z,7.70
2019-03-15T06:02:40.040Z,7.70
2019-03-15T06:05:09.216Z,7.60
2019-03-15T06:07:38.922Z,7.60
2019-03-15T06:10:08.708Z,7.60
2019-03-15T06:12:37.522Z,7.60
2019-03-15T06:15:06.952Z,7.60
2019-03-15T06:17:35.785Z,7.50
2019-03-15T06:20:06.368Z,7.50
2019-03-15T06:22:35.500Z,7.50
2019-03-15T06:25:04.773Z,7.50
2019-03-15T06:27:34.576Z,7.50
2019-03-15T06:30:03.693Z,7.50
2019-03-15T06:32:32.500Z,7.50
2019-03-15T06:35:01.365Z,7.50
2019-03-15T06:37:30.253Z,7.50
2019-03-15T06:39:59.238Z,7.50
2019-03-15T06:42:28.032Z,7.50
2019-03-15T06:44:58.184Z,7.60
2019-03-15T06:47:27.142Z,7.50
2019-03-15T06:49:55.938Z,7.50
2019-03-15T06:52:24.793Z,7.50
2019-03-15T06:54:53.713Z,7.60
2019-03-15T06:57:41.801Z,7.60
2019-03-15T07:00:10.962Z,7.60
2019-03-15T07:02:39.885Z,7.60
2019-03-15T07:05:11.852Z,7.70
2019-03-15T07:07:42.008Z,7.60
2019-03-15T07:10:11.452Z,7.60
2019-03-15T07:12:40.841Z,7.70
2019-03-15T07:15:10.017Z,7.70
2019-03-15T07:17:38.971Z,7.70
2019-03-15T07:20:08.830Z,7.70
2019-03-15T07:22:37.753Z,7.70
2019-03-15T07:25:06.919Z,7.70
2019-03-15T07:27:43.228Z,7.80
2019-03-15T07:30:12.332Z,7.80
2019-03-15T07:32:41.229Z,8.00
2019-03-15T07:35:10.513Z,8.00
2019-03-15T07:37:39.417Z,8.10
2019-03-15T07:40:09.277Z,8.00
2019-03-15T07:42:38.368Z,8.10
2019-03-15T07:45:07.580Z,8.10
2019-03-15T07:47:36.381Z,8.20
2019-03-15T07:50:06.473Z,8.30
2019-03-15T07:52:35.469Z,8.30
2019-03-15T07:55:04.674Z,8.40
2019-03-15T07:57:33.529Z,8.50
2019-03-15T08:00:02.707Z,8.60
2019-03-15T08:02:31.684Z,8.60
2019-03-15T08:05:00.538Z,8.70
2019-03-15T08:07:36.365Z,8.80
2019-03-15T08:10:00.544Z,8.90
2019-03-15T08:12:31.039Z,9.00
2019-03-15T08:15:02.541Z,9.00
2019-03-15T08:17:36.553Z,9.10
2019-03-15T08:20:05.776Z,9.20
2019-03-15T08:22:34.681Z,9.40
2019-03-15T08:25:03.598Z,9.40
2019-03-15T08:27:32.500Z,9.50
2019-03-15T08:30:01.649Z,9.70
2019-03-15T08:32:30.663Z,9.90
2019-03-15T08:34:59.589Z,9.90
2019-03-15T08:37:28.445Z,10.10
2019-03-15T08:39:57.273Z,10.30
2019-03-15T08:42:26.127Z,10.40
2019-03-15T08:44:54.917Z,10.60
2019-03-15T08:47:24.606Z,10.70
2019-03-15T08:49:53.500Z,10.60
2019-03-15T08:52:22.392Z,10.80
2019-03-15T08:55:04.225Z,10.80
2019-03-15T08:57:21.912Z,10.90
2019-03-15T08:59:56.947Z,11.00
2019-03-15T09:02:21.708Z,11.00
2019-03-15T09:04:50.688Z,11.00
2019-03-15T09:07:19.538Z,11.10
2019-03-15T09:09:48.517Z,11.20
2019-03-15T09:12:17.524Z,11.30
2019-03-15T09:14:46.372Z,11.30
2019-03-15T09:17:15.273Z,11.40
2019-03-15T09:19:44.161Z,11.40
2019-03-15T09:22:13.097Z,11.40
2019-03-15T09:24:43.269Z,11.40
2019-03-15T09:27:12.133Z,11.40
2019-03-15T09:29:40.937Z,11.60
2019-03-15T09:32:10.281Z,11.70
2019-03-15T09:34:40.333Z,11.70
2019-03-15T09:37:09.238Z,11.70
2019-03-15T09:39:38.017Z,11.80
2019-03-15T09:42:06.853Z,11.90
2019-03-15T09:44:37.681Z,11.90
2019-03-15T09:47:06.737Z,12.00
2019-03-15T09:49:35.801Z,12.00
2019-03-15T09:52:04.709Z,12.10
2019-03-15T09:54:33.524Z,12.20
2019-03-15T09:57:02.398Z,12.30
2019-03-15T09:59:31.190Z,12.40
2019-03-15T10:02:00.161Z,12.50
2019-03-15T10:04:29.040Z,12.50
2019-03-15T10:07:00.100Z,12.70
2019-03-15T10:09:29.148Z,12.80
2019-03-15T10:12:00.769Z,12.80
2019-03-15T10:14:29.628Z,12.80
2019-03-15T10:16:58.442Z,12.70
2019-03-15T10:19:29.725Z,12.60
2019-03-15T10:21:57.925Z,12.60
2019-03-15T10:24:26.760Z,12.60
2019-03-15T10:26:55.549Z,12.60
2019-03-15T10:29:24.372Z,12.60
2019-03-15T10:31:53.193Z,12.70
2019-03-15T10:34:22.217Z,12.70
2019-03-15T10:36:51.037Z,12.60
2019-03-15T10:39:19.837Z,12.40
2019-03-15T10:41:48.717Z,12.30
2019-03-15T10:44:20.414Z,12.40
2019-03-15T10:46:49.301Z,12.30
2019-03-15T10:49:18.115Z,12.30
2019-03-15T10:51:49.247Z,12.30
2019-03-15T10:54:18.057Z,12.40
2019-03-15T10:56:46.873Z,12.40
2019-03-15T10:59:15.716Z,12.50
2019-03-15T11:01:44.641Z,12.50
2019-03-15T11:04:15.132Z,12.60
2019-03-15T11:06:43.919Z,12.60
2019-03-15T11:09:14.786Z,12.60
2019-03-15T11:11:43.569Z,12.60
2019-03-15T11:14:12.472Z,12.60
2019-03-15T11:16:41.443Z,12.60
2019-03-15T11:19:10.481Z,12.50
2019-03-15T11:26:36.378Z,12.50
2019-03-15T11:29:05.280Z,12.70
2019-03-15T11:31:34.183Z,12.70
2019-03-15T11:34:03.021Z,12.70
2019-03-15T11:36:31.958Z,12.70
2019-03-15T11:39:00.804Z,12.70
2019-03-15T11:41:29.663Z,12.80
2019-03-15T11:43:58.497Z,12.80
2019-03-15T11:46:27.345Z,12.80
2019-03-15T11:48:56.294Z,12.80
2019-03-15T11:51:25.152Z,13.00
2019-03-15T11:53:54.307Z,13.10
2019-03-15T11:56:27.110Z,13.30
2019-03-15T11:58:53.649Z,13.30
2019-03-15T12:01:22.524Z,13.50
2019-03-15T12:03:53.402Z,13.40
2019-03-15T12:06:21.889Z,13.40
2019-03-15T12:08:50.802Z,13.40
2019-03-15T12:11:19.569Z,13.50
2019-03-15T12:13:48.407Z,13.60
2019-03-15T12:16:17.227Z,13.60
2019-03-15T12:18:46.026Z,13.70
2019-03-15T12:21:14.826Z,13.70
2019-03-15T12:23:43.661Z,13.70
2019-03-15T12:26:12.597Z,13.70
2019-03-15T12:28:41.408Z,13.80
2019-03-15T12:31:10.522Z,13.80
2019-03-15T12:33:39.314Z,13.90
2019-03-15T12:36:08.141Z,13.90
2019-03-15T12:38:37.762Z,13.70
2019-03-15T12:41:06.864Z,13.30
2019-03-15T12:43:35.776Z,12.90
2019-03-15T12:46:04.714Z,12.80
2019-03-15T12:48:33.699Z,12.70
2019-03-15T12:51:02.605Z,12.70
2019-03-15T12:53:31.991Z,12.70
2019-03-15T12:56:20.437Z,12.80
2019-03-15T12:58:49.361Z,12.80
2019-03-15T13:01:18.288Z,12.90
2019-03-15T13:03:47.155Z,12.90
2019-03-15T13:06:15.964Z,12.90
2019-03-15T13:08:47.275Z,12.90
2019-03-15T13:11:15.392Z,12.90
2019-03-15T13:13:44.209Z,12.90
2019-03-15T13:16:13.061Z,12.90
2019-03-15T13:18:41.877Z,12.80
2019-03-15T13:21:10.781Z,12.90
2019-03-15T13:23:39.581Z,12.90
2019-03-15T13:26:08.531Z,12.90
2019-03-15T13:28:37.445Z,12.90
2019-03-15T13:31:06.358Z,13.00
2019-03-15T13:33:35.216Z,13.00
2019-03-15T13:36:04.247Z,13.00
2019-03-15T13:38:33.061Z,13.00
2019-03-15T13:41:02.105Z,12.90
2019-03-15T13:43:32.329Z,12.90
2019-03-15T13:46:01.249Z,12.90
2019-03-15T13:48:30.110Z,13.00
2019-03-15T13:50:58.993Z,13.00
2019-03-15T13:53:27.901Z,13.00
2019-03-15T13:55:56.728Z,13.00
2019-03-15T13:58:25.678Z,13.10
2019-03-15T14:00:54.517Z,13.00
2019-03-15T14:03:23.324Z,13.00
2019-03-15T14:05:52.276Z,13.00
2019-03-15T14:08:21.161Z,12.90
2019-03-15T14:10:50.036Z,12.80
2019-03-15T14:13:18.852Z,12.80
2019-03-15T14:15:47.773Z,12.70
2019-03-15T14:18:16.567Z,12.60
2019-03-15T14:20:45.373Z,12.50
2019-03-15T14:23:14.195Z,12.40
2019-03-15T14:25:43.029Z,12.30
2019-03-15T14:28:11.809Z,12.20
2019-03-15T14:30:40.626Z,12.20
2019-03-15T14:33:09.452Z,12.10
2019-03-15T14:35:38.288Z,12.10
2019-03-15T14:38:07.151Z,12.10
2019-03-15T14:40:36.050Z,12.10
2019-03-15T14:43:05.367Z,12.10
2019-03-15T14:45:34.481Z,12.10
2019-03-15T14:48:03.515Z,12.10
2019-03-15T14:50:32.306Z,12.10
2019-03-15T14:53:01.148Z,12.10
2019-03-15T14:55:29.936Z,12.10
2019-03-15T14:58:00.357Z,12.10
2019-03-15T15:00:29.536Z,12.10
2019-03-15T15:02:58.362Z,12.10
2019-03-15T15:05:27.358Z,12.20
2019-03-15T15:07:56.177Z,12.20
2019-03-15T15:10:24.996Z,12.20
2019-03-15T15:12:53.870Z,12.10
2019-03-15T15:15:22.805Z,12.10
2019-03-15T15:17:51.638Z,12.10
2019-03-15T15:20:20.517Z,12.10
2019-03-15T15:22:49.584Z,12.10
2019-03-15T15:25:18.584Z,12.00
2019-03-15T15:27:47.529Z,12.00
2019-03-15T15:30:16.512Z,12.00
2019-03-15T15:32:45.470Z,12.00
2019-03-15T15:35:14.534Z,12.00
2019-03-15T15:37:43.429Z,11.90
2019-03-15T15:40:12.474Z,11.70
2019-03-15T15:42:41.284Z,11.50
2019-03-15T15:45:10.502Z,11.50
2019-03-15T15:47:39.335Z,11.50
2019-03-15T15:50:08.501Z,11.50
2019-03-15T15:52:37.316Z,11.40
2019-03-15T15:55:06.406Z,11.40
2019-03-15T15:57:35.256Z,11.50
2019-03-15T16:00:05.533Z,11.40
2019-03-15T16:02:34.380Z,11.40
2019-03-15T16:05:03.358Z,11.40
2019-03-15T16:07:32.180Z,11.30
2019-03-15T16:10:00.975Z,11.40
2019-03-15T16:12:29.996Z,11.40
2019-03-15T16:14:58.818Z,11.40
2019-03-15T16:17:27.673Z,11.30
2019-03-15T16:19:56.520Z,11.30
2019-03-15T16:22:25.333Z,11.30
2019-03-15T16:24:54.117Z,11.20
2019-03-15T16:27:22.985Z,11.20
2019-03-15T16:29:51.788Z,11.20
2019-03-15T16:32:20.669Z,11.20
2019-03-15T16:34:49.487Z,11.20
2019-03-15T16:37:18.348Z,11.20
2019-03-15T16:39:47.237Z,11.20
2019-03-15T16:42:16.143Z,11.10
2019-03-15T16:44:44.983Z,11.10
2019-03-15T16:47:13.949Z,11.10
2019-03-15T16:49:42.765Z,11.10
2019-03-15T16:52:11.609Z,11.10
2019-03-15T16:54:40.413Z,11.00
2019-03-15T16:57:09.584Z,11.00
2019-03-15T16:59:38.401Z,11.00
2019-03-15T17:02:07.274Z,11.00
2019-03-15T17:04:36.153Z,10.90
2019-03-15T17:07:05.113Z,10.90
2019-03-15T17:09:33.937Z,10.80
2019-03-15T17:12:02.796Z,10.80
2019-03-15T17:14:31.661Z,10.80
2019-03-15T17:17:00.553Z,10.80
2019-03-15T17:19:29.389Z,10.80
2019-03-15T17:21:58.400Z,10.70
2019-03-15T17:24:27.208Z,10.70
2019-03-15T17:26:56.113Z,10.70
2019-03-15T17:29:24.956Z,10.70
2019-03-15T17:31:53.840Z,10.60
2019-03-15T17:34:22.676Z,10.50
2019-03-15T17:36:51.552Z,10.50
2019-03-15T17:39:20.943Z,10.40
2019-03-15T17:41:49.771Z,10.40
2019-03-15T17:44:18.604Z,10.40
2019-03-15T17:46:47.497Z,10.30
2019-03-15T17:49:16.473Z,10.30
2019-03-15T17:51:45.281Z,10.20
2019-03-15T17:54:14.101Z,10.20
2019-03-15T17:56:42.901Z,10.20
2019-03-15T17:59:12.910Z,10.10
2019-03-15T18:01:41.816Z,10.00
2019-03-15T18:04:10.835Z,10.00
2019-03-15T18:06:39.788Z,10.00
2019-03-15T18:09:08.656Z,10.00
2019-03-15T18:11:37.602Z,10.00
2019-03-15T18:14:06.415Z,9.90
2019-03-15T18:16:35.268Z,9.90
2019-03-15T18:19:04.151Z,9.90
2019-03-15T18:21:33.060Z,9.90
2019-03-15T18:24:01.923Z,9.90
2019-03-15T18:26:30.737Z,9.80
2019-03-15T18:28:59.592Z,9.90
2019-03-15T18:31:28.435Z,9.80
2019-03-15T18:33:57.234Z,9.80
2019-03-15T18:36:28.304Z,9.70
2019-03-15T18:39:03.873Z,9.70
2019-03-15T18:41:32.767Z,9.70
2019-03-15T18:44:01.651Z,9.70
2019-03-15T18:46:30.518Z,9.70
2019-03-15T18:49:19.009Z,9.70
2019-03-15T18:51:47.924Z,9.60
2019-03-15T18:54:17.927Z,9.50
2019-03-15T18:56:47.257Z,9.50
2019-03-15T18:59:16.170Z,9.40
2019-03-15T19:01:44.995Z,9.50
2019-03-15T19:04:13.823Z,9.40
2019-03-15T19:07:01.848Z,9.50
2019-03-15T19:09:30.769Z,9.40
2019-03-15T19:11:59.596Z,9.40
2019-03-15T19:14:28.701Z,9.40
2019-03-15T19:17:16.728Z,9.30
2019-03-15T19:19:45.517Z,9.30
2019-03-15T19:22:14.416Z,9.40
2019-03-15T19:24:43.198Z,9.30
2019-03-15T19:27:12.085Z,9.30
2019-03-15T19:29:53.201Z,9.30
2019-03-15T19:32:11.393Z,9.30
2019-03-15T19:34:40.177Z,9.20
2019-03-15T19:37:09.116Z,9.20
2019-03-15T19:39:37.908Z,9.10
2019-03-15T19:42:06.802Z,9.10
2019-03-15T19:44:35.759Z,9.00
2019-03-15T19:47:04.732Z,9.00
2019-03-15T19:49:33.733Z,9.00
2019-03-15T19:52:02.574Z,9.00
2019-03-15T19:54:32.037Z,8.90
2019-03-15T19:57:00.944Z,8.90
2019-03-15T19:59:29.753Z,8.90
2019-03-15T20:01:58.712Z,8.80
2019-03-15T20:04:27.530Z,8.80
2019-03-15T20:06:56.364Z,8.80
2019-03-15T20:09:25.245Z,8.70
2019-03-15T20:11:54.064Z,8.70
2019-03-15T20:14:23.002Z,8.70
2019-03-15T20:16:51.981Z,8.70
2019-03-15T20:19:20.773Z,8.60
2019-03-15T20:21:49.638Z,8.60
2019-03-15T20:24:37.650Z,8.60
2019-03-15T20:27:06.544Z,8.50
2019-03-15T20:29:35.337Z,8.50
2019-03-15T20:32:04.353Z,8.40
2019-03-15T20:34:33.156Z,8.30
2019-03-15T20:37:01.957Z,8.30
2019-03-15T20:39:30.808Z,8.20
2019-03-15T20:41:59.594Z,8.20
2019-03-15T20:44:29.134Z,8.10
2019-03-15T20:46:58.277Z,8.10
2019-03-15T20:49:27.111Z,8.10
2019-03-15T20:51:56.081Z,8.10
2019-03-15T20:54:24.965Z,8.10
2019-03-15T20:56:53.783Z,8.10
2019-03-15T20:59:22.637Z,8.20
2019-03-15T21:01:51.445Z,8.20
2019-03-15T21:04:20.372Z,8.20
2019-03-15T21:06:49.275Z,8.20
2019-03-15T21:09:18.114Z,8.20
2019-03-15T21:11:46.927Z,8.20
2019-03-15T21:14:15.736Z,8.20
2019-03-15T21:16:44.581Z,8.20
2019-03-15T21:19:13.544Z,8.20
2019-03-15T21:21:42.379Z,8.20
2019-03-15T21:24:11.192Z,8.20
2019-03-15T21:26:40.073Z,8.20
2019-03-15T21:29:11.765Z,8.30
2019-03-15T21:31:39.413Z,8.20
2019-03-15T21:34:08.211Z,8.30
